createdAt,value
2022-11-03T00:01:02.416Z,5.27
2022-11-03T00:03:47.941Z,3.10
2022-11-03T00:06:34.423Z,3.93
2022-11-03T00:09:21.196Z,5.97
2022-11-03T00:12:08.292Z,5.93
2022-11-03T00:14:53.862Z,5.97
2022-11-03T00:17:39.308Z,4.00
2022-11-03T00:20:24.959Z,2.63
2022-11-03T00:23:10.331Z,3.80
2022-11-03T00:25:56.516Z,4.80
2022-11-03T00:28:44.367Z,3.70
2022-11-03T00:31:32.406Z,4.80
2022-11-03T00:34:17.897Z,3.15
2022-11-03T00:37:03.390Z,4.07
2022-11-03T00:39:48.742Z,3.97
2022-11-03T00:42:35.116Z,5.95
2022-11-03T00:45:20.881Z,3.43
2022-11-03T00:48:24.821Z,4.57
2022-11-03T00:51:23.045Z,5.03
2022-11-03T00:54:08.623Z,4.10
2022-11-03T00:56:54.441Z,3.73
2022-11-03T00:59:40.000Z,3.63
2022-11-03T01:02:25.609Z,4.40
2022-11-03T01:05:29.266Z,5.97
2022-11-03T01:08:14.623Z,4.97
2022-11-03T01:11:31.393Z,5.37
2022-11-03T01:14:16.959Z,3.83
2022-11-03T01:17:05.867Z,7.00
2022-11-03T01:19:52.092Z,4.87
2022-11-03T01:22:37.929Z,6.40
2022-11-03T01:25:24.235Z,5.30
2022-11-03T01:28:11.032Z,4.30
2022-11-03T01:31:02.144Z,3.03
2022-11-03T01:33:49.472Z,5.33
2022-11-03T01:36:35.125Z,4.23
2022-11-03T01:39:20.726Z,5.17
2022-11-03T01:42:06.387Z,5.63
2022-11-03T01:44:51.913Z,4.30
2022-11-03T01:47:37.705Z,3.47
2022-11-03T01:50:23.499Z,4.50
2022-11-03T01:53:09.682Z,6.30
2022-11-03T01:55:56.775Z,7.00
2022-11-03T01:58:44.864Z,5.23
2022-11-03T02:01:32.063Z,4.70
2022-11-03T02:04:24.295Z,4.93
2022-11-03T02:07:28.340Z,4.90
2022-11-03T02:10:14.179Z,5.10
2022-11-03T02:12:59.934Z,3.60
2022-11-03T02:15:49.027Z,2.07
2022-11-03T02:18:34.841Z,5.23
2022-11-03T02:21:27.027Z,5.97
2022-11-03T02:24:27.615Z,5.37
2022-11-03T02:27:13.101Z,6.47
2022-11-03T02:29:59.018Z,5.13
2022-11-03T02:33:11.096Z,4.03
2022-11-03T02:36:32.687Z,5.73
2022-11-03T02:39:30.981Z,5.30
2022-11-03T02:42:19.149Z,6.93
2022-11-03T02:45:11.889Z,4.03
2022-11-03T02:48:03.046Z,4.60
2022-11-03T02:50:51.788Z,5.47
2022-11-03T02:54:05.327Z,8.30
2022-11-03T02:56:55.850Z,3.87
2022-11-03T02:59:50.838Z,4.93
2022-11-03T03:03:15.318Z,3.27
2022-11-03T03:06:07.763Z,4.83
2022-11-03T03:09:00.998Z,5.90
2022-11-03T03:11:48.428Z,4.27
2022-11-03T03:14:38.106Z,3.10
2022-11-03T03:17:44.671Z,4.77
2022-11-03T03:21:11.447Z,5.13
2022-11-03T03:24:31.214Z,3.00
2022-11-03T03:27:19.950Z,5.60
2022-11-03T03:30:07.914Z,4.00
2022-11-03T03:32:56.424Z,3.90
2022-11-03T03:35:45.440Z,5.23
2022-11-03T03:38:37.626Z,3.83
2022-11-03T03:41:25.562Z,5.37
2022-11-03T03:44:12.499Z,3.23
2022-11-03T03:47:06.787Z,3.70
2022-11-03T03:49:52.582Z,5.20
2022-11-03T03:52:38.173Z,5.37
2022-11-03T03:55:33.869Z,3.97
2022-11-03T03:58:19.838Z,2.67
2022-11-03T04:01:05.415Z,4.80
2022-11-03T04:03:50.866Z,3.67
2022-11-03T04:06:36.388Z,3.57
2022-11-03T04:09:21.968Z,3.73
2022-11-03T04:12:27.306Z,2.57
2022-11-03T04:15:32.529Z,5.17
2022-11-03T04:18:38.080Z,5.10
2022-11-03T04:21:41.881Z,5.73
2022-11-03T04:24:27.366Z,6.90
2022-11-03T04:27:18.878Z,5.43
2022-11-03T04:30:19.461Z,3.03
2022-11-03T04:33:13.691Z,4.87
2022-11-03T04:35:59.858Z,4.37
2022-11-03T04:38:45.882Z,6.23
2022-11-03T04:41:33.268Z,4.27
2022-11-03T04:44:19.323Z,3.70
2022-11-03T04:47:13.098Z,5.73
2022-11-03T04:49:59.365Z,3.13
2022-11-03T04:52:45.208Z,3.00
2022-11-03T04:55:31.368Z,6.23
2022-11-03T04:58:25.162Z,3.20
2022-11-03T05:01:15.526Z,3.10
2022-11-03T05:04:02.466Z,5.17
2022-11-03T05:06:52.558Z,5.90
2022-11-03T05:09:42.685Z,4.30
2022-11-03T05:12:30.142Z,4.77
2022-11-03T05:15:36.720Z,4.10
2022-11-03T05:18:26.822Z,4.17
2022-11-03T05:21:15.750Z,3.83
2022-11-03T05:24:11.947Z,3.53
2022-11-03T05:26:59.659Z,4.17
2022-11-03T05:29:46.027Z,7.77
2022-11-03T05:32:34.191Z,5.40
2022-11-03T05:35:22.991Z,4.27
2022-11-03T05:38:14.718Z,7.60
2022-11-03T05:41:01.449Z,4.93
2022-11-03T05:44:13.210Z,7.20
2022-11-03T05:47:01.965Z,5.33
2022-11-03T05:49:53.324Z,3.67
2022-11-03T05:52:39.188Z,6.60
2022-11-03T05:55:32.242Z,6.37
2022-11-03T05:58:41.134Z,4.77
2022-11-03T06:01:30.670Z,5.37
2022-11-03T06:04:26.763Z,7.00
2022-11-03T06:07:18.450Z,6.73
2022-11-03T06:10:22.148Z,7.60
2022-11-03T06:13:16.366Z,4.23
2022-11-03T06:16:06.216Z,6.07
2022-11-03T06:18:52.189Z,4.90
2022-11-03T06:21:41.895Z,5.33
2022-11-03T06:24:32.399Z,3.17
2022-11-03T06:27:23.835Z,5.40
2022-11-03T06:30:18.113Z,4.10
2022-11-03T06:33:34.248Z,4.23
2022-11-03T06:36:22.538Z,5.90
2022-11-03T06:39:22.423Z,5.57
2022-11-03T06:42:16.207Z,4.23
2022-11-03T06:45:10.792Z,5.77
2022-11-03T06:47:56.687Z,4.70
2022-11-03T06:50:44.870Z,4.83
2022-11-03T06:53:33.624Z,6.13
2022-11-03T06:56:22.885Z,5.83
2022-11-03T06:59:14.444Z,6.87
2022-11-03T07:02:00.703Z,4.13
2022-11-03T07:04:46.433Z,9.83
2022-11-03T07:07:34.770Z,4.80
2022-11-03T07:10:24.279Z,3.67
2022-11-03T07:13:23.813Z,6.00
2022-11-03T07:16:21.395Z,3.33
2022-11-03T07:19:21.121Z,4.00
2022-11-03T07:22:23.777Z,5.60
2022-11-03T07:25:18.605Z,7.00
2022-11-03T07:28:05.017Z,4.63
2022-11-03T07:30:50.719Z,6.57
2022-11-03T07:33:36.238Z,3.90
2022-11-03T07:36:23.599Z,3.47
2022-11-03T07:39:15.191Z,4.40
2022-11-03T07:42:11.722Z,6.65
2022-11-03T07:44:58.696Z,4.65
2022-11-03T07:47:44.552Z,4.82
2022-11-03T07:50:30.336Z,3.90
2022-11-03T07:53:26.013Z,4.63
2022-11-03T07:56:35.818Z,5.50
2022-11-03T07:59:21.148Z,6.93
2022-11-03T08:02:34.500Z,3.63
2022-11-03T08:08:10.868Z,4.60
2022-11-03T08:10:56.564Z,3.97
2022-11-03T08:13:42.057Z,2.92
2022-11-03T08:16:27.755Z,4.07
2022-11-03T08:19:13.340Z,5.07
2022-11-03T08:21:59.061Z,8.05
2022-11-03T08:24:44.715Z,5.93
2022-11-03T08:27:30.151Z,5.47
2022-11-03T08:30:16.323Z,4.35
2022-11-03T08:33:02.329Z,3.47
2022-11-03T08:35:47.931Z,6.55
2022-11-03T08:38:33.896Z,6.93
2022-11-03T08:41:19.509Z,4.45
2022-11-03T08:44:05.984Z,3.95
2022-11-03T08:46:51.579Z,4.20
2022-11-03T08:49:36.997Z,4.43
2022-11-03T08:52:22.714Z,5.35
2022-11-03T08:55:08.563Z,3.58
2022-11-03T08:57:54.024Z,6.43
2022-11-03T09:00:41.201Z,4.22
2022-11-03T09:03:26.926Z,3.63
2022-11-03T09:06:12.462Z,3.28
2022-11-03T09:12:03.584Z,4.50
2022-11-03T09:14:49.379Z,5.32
2022-11-03T09:17:35.894Z,4.18
2022-11-03T09:20:21.562Z,4.32
2022-11-03T09:23:07.446Z,4.05
2022-11-03T09:25:53.009Z,2.53
2022-11-03T09:28:38.686Z,6.68
2022-11-03T09:31:28.441Z,4.45
2022-11-03T09:34:14.348Z,5.25
2022-11-03T09:37:00.196Z,2.45
2022-11-03T09:39:45.827Z,4.60
2022-11-03T09:42:34.396Z,4.50
2022-11-03T09:45:20.385Z,6.65
2022-11-03T09:48:12.149Z,4.68
2022-11-03T09:50:57.933Z,5.15
2022-11-03T09:53:43.571Z,3.38
2022-11-03T09:56:30.306Z,3.22
2022-11-03T09:59:21.451Z,3.22
2022-11-03T10:02:22.944Z,6.45
2022-11-03T10:05:13.517Z,2.67
2022-11-03T10:08:03.244Z,1.70
2022-11-03T10:10:50.861Z,3.70
2022-11-03T10:13:42.126Z,4.55
2022-11-03T10:16:28.264Z,6.13
2022-11-03T10:19:14.412Z,2.00
2022-11-03T10:21:59.867Z,4.03
2022-11-03T10:24:45.610Z,4.40
2022-11-03T10:27:31.307Z,2.83
2022-11-03T10:30:16.873Z,4.00
2022-11-03T10:33:02.294Z,4.65
2022-11-03T10:35:48.229Z,4.07
2022-11-03T10:38:36.442Z,2.47
2022-11-03T10:41:26.695Z,4.70
2022-11-03T10:44:12.247Z,2.60
2022-11-03T10:46:59.847Z,3.47
2022-11-03T10:49:45.646Z,3.35
2022-11-03T10:52:31.545Z,4.85
2022-11-03T10:55:22.122Z,3.75
2022-11-03T10:58:11.126Z,4.22
2022-11-03T11:00:57.077Z,2.92
2022-11-03T11:03:44.346Z,3.13
2022-11-03T11:06:31.052Z,3.58
2022-11-03T11:09:25.598Z,5.00
2022-11-03T11:12:19.635Z,3.78
2022-11-03T11:15:39.540Z,3.95
2022-11-03T11:18:28.390Z,4.60
2022-11-03T11:21:17.714Z,3.00
2022-11-03T11:24:03.670Z,2.25
2022-11-03T11:26:50.834Z,4.95
2022-11-03T11:29:36.454Z,10.40
2022-11-03T11:32:37.155Z,4.03
2022-11-03T11:35:22.720Z,4.53
2022-11-03T11:38:45.914Z,2.22
2022-11-03T11:42:09.262Z,3.67
2022-11-03T11:45:00.451Z,3.55
2022-11-03T11:47:50.618Z,4.55
2022-11-03T11:50:36.489Z,3.90
2022-11-03T11:53:28.984Z,5.85
2022-11-03T11:56:18.486Z,5.20
2022-11-03T11:59:04.844Z,2.30
2022-11-03T12:01:52.581Z,3.53
2022-11-03T12:04:38.291Z,3.28
2022-11-03T12:07:36.883Z,2.55
2022-11-03T12:10:28.503Z,4.43
2022-11-03T12:13:47.644Z,2.85
2022-11-03T12:16:38.056Z,2.42
2022-11-03T12:19:46.866Z,5.18
2022-11-03T12:22:43.031Z,3.10
2022-11-03T12:25:36.805Z,4.93
2022-11-03T12:28:36.318Z,3.33
2022-11-03T12:31:22.187Z,3.80
2022-11-03T12:34:07.663Z,2.33
2022-11-03T12:36:56.147Z,5.05
2022-11-03T12:39:42.296Z,5.47
2022-11-03T12:42:27.743Z,4.65
2022-11-03T12:45:13.887Z,4.85
2022-11-03T12:47:59.802Z,3.17
2022-11-03T12:50:45.265Z,3.65
2022-11-03T12:53:30.895Z,4.13
2022-11-03T12:56:17.502Z,3.65
2022-11-03T12:59:03.147Z,3.78
2022-11-03T13:01:48.919Z,4.07
2022-11-03T13:04:34.752Z,2.63
2022-11-03T13:07:25.791Z,5.18
2022-11-03T13:10:14.535Z,4.00
2022-11-03T13:13:00.224Z,5.00
2022-11-03T13:15:45.741Z,4.57
2022-11-03T13:18:31.288Z,2.08
2022-11-03T13:21:17.842Z,3.63
2022-11-03T13:24:03.767Z,1.77
2022-11-03T13:26:49.735Z,5.28
2022-11-03T13:29:36.325Z,3.85
2022-11-03T13:32:22.226Z,3.03
2022-11-03T13:35:12.516Z,3.15
2022-11-03T13:37:59.405Z,2.20
2022-11-03T13:41:07.011Z,3.90
2022-11-03T13:43:50.602Z,4.43
2022-11-03T13:46:36.925Z,4.75
2022-11-03T13:52:29.704Z,7.78
2022-11-03T14:01:27.797Z,3.08
2022-11-03T14:07:18.670Z,5.93
2022-11-03T14:10:04.719Z,4.15
2022-11-03T14:12:50.318Z,5.07
2022-11-03T14:15:35.951Z,4.35
2022-11-03T14:18:21.589Z,3.45
2022-11-03T14:21:07.355Z,2.10
2022-11-03T14:23:52.797Z,4.82
2022-11-03T14:26:43.130Z,4.10
2022-11-03T14:29:29.109Z,3.88
2022-11-03T14:32:14.635Z,5.18
2022-11-03T14:35:00.021Z,7.85
2022-11-03T14:37:45.592Z,4.53
2022-11-03T14:40:49.502Z,1.85
2022-11-03T14:43:35.336Z,2.15
2022-11-03T14:46:20.943Z,4.90
2022-11-03T14:49:06.423Z,2.15
2022-11-03T14:51:51.838Z,5.45
2022-11-03T14:54:37.542Z,2.83
2022-11-03T14:57:22.967Z,3.03
2022-11-03T15:00:11.220Z,3.53
2022-11-03T15:02:56.994Z,2.67
2022-11-03T15:05:45.221Z,2.47
2022-11-03T15:08:32.459Z,3.28
2022-11-03T15:11:17.951Z,7.45
2022-11-03T15:14:03.943Z,1.65
2022-11-03T15:16:49.480Z,2.33
2022-11-03T15:19:35.203Z,4.55
2022-11-03T15:22:20.910Z,5.07
2022-11-03T15:27:56.780Z,3.90
2022-11-03T15:30:42.092Z,2.50
2022-11-03T15:33:27.763Z,5.03
2022-11-03T15:36:13.810Z,2.03
2022-11-03T15:38:59.242Z,2.25
2022-11-03T15:41:44.770Z,4.95
2022-11-03T15:44:30.287Z,5.80
2022-11-03T15:47:15.696Z,8.15
2022-11-03T15:50:01.157Z,3.13
2022-11-03T15:52:46.756Z,2.08
2022-11-03T15:55:32.642Z,4.85
2022-11-03T15:58:18.570Z,3.33
2022-11-03T16:01:05.297Z,1.50
2022-11-03T16:03:51.213Z,5.78
2022-11-03T16:09:42.656Z,4.25
2022-11-03T16:12:28.198Z,1.20
2022-11-03T16:15:13.660Z,2.05
2022-11-03T16:18:02.750Z,2.97
2022-11-03T16:20:48.316Z,1.90
2022-11-03T16:23:33.769Z,4.40
2022-11-03T16:26:22.933Z,1.63
2022-11-03T16:29:09.312Z,1.67
2022-11-03T16:31:54.924Z,1.83
2022-11-03T16:34:40.700Z,2.65
2022-11-03T16:37:28.509Z,3.10
2022-11-03T16:40:18.960Z,2.42
2022-11-03T16:43:05.387Z,6.32
2022-11-03T16:45:50.987Z,1.17
2022-11-03T16:48:36.613Z,4.65
2022-11-03T16:51:22.424Z,2.20
2022-11-03T16:54:08.282Z,3.97
2022-11-03T16:56:55.035Z,3.00
2022-11-03T16:59:40.863Z,2.10
2022-11-03T17:02:28.093Z,2.90
2022-11-03T17:05:15.671Z,0.85
2022-11-03T17:08:01.291Z,1.95
2022-11-03T17:10:47.502Z,2.83
2022-11-03T17:13:33.190Z,1.95
2022-11-03T17:16:18.854Z,1.63
2022-11-03T17:19:04.480Z,3.38
2022-11-03T17:21:50.764Z,1.58
2022-11-03T17:24:36.871Z,3.42
2022-11-03T17:27:32.102Z,3.20
2022-11-03T17:30:24.524Z,2.22
2022-11-03T17:33:16.910Z,1.25
2022-11-03T17:36:02.725Z,1.20
2022-11-03T17:38:48.545Z,2.03
2022-11-03T17:41:36.693Z,1.75
2022-11-03T17:44:22.482Z,1.77
2022-11-03T17:47:10.709Z,1.75
2022-11-03T17:49:59.387Z,1.25
2022-11-03T17:52:47.703Z,1.23
2022-11-03T17:55:47.183Z,1.73
2022-11-03T17:58:46.589Z,3.70
2022-11-03T18:01:38.971Z,1.95
2022-11-03T18:04:31.341Z,1.33
2022-11-03T18:07:32.363Z,1.05
2022-11-03T18:10:26.391Z,1.92
2022-11-03T18:13:21.475Z,1.63
2022-11-03T18:16:12.556Z,2.25
2022-11-03T18:18:58.576Z,2.10
2022-11-03T18:21:44.562Z,1.15
2022-11-03T18:24:30.665Z,1.67
2022-11-03T18:27:19.158Z,2.25
2022-11-03T18:30:08.662Z,2.92
2022-11-03T18:32:54.434Z,1.38
2022-11-03T18:35:40.987Z,0.90
2022-11-03T18:38:26.753Z,2.22
2022-11-03T18:41:36.100Z,1.83
2022-11-03T18:44:24.742Z,0.80
2022-11-03T18:47:11.094Z,1.40
2022-11-03T18:49:56.878Z,0.82
2022-11-03T18:52:47.794Z,3.05
2022-11-03T18:55:33.287Z,4.82
2022-11-03T18:58:24.103Z,0.90
2022-11-03T19:01:21.469Z,0.88
2022-11-03T19:04:14.969Z,1.58
2022-11-03T19:07:02.911Z,2.25
2022-11-03T19:09:48.705Z,1.95
2022-11-03T19:12:38.846Z,1.38
2022-11-03T19:15:26.038Z,2.05
2022-11-03T19:18:13.114Z,1.75
2022-11-03T19:20:59.263Z,0.93
2022-11-03T19:23:47.962Z,1.83
2022-11-03T19:26:51.927Z,2.75
2022-11-03T19:29:40.632Z,1.38
2022-11-03T19:32:30.301Z,4.20
2022-11-03T19:35:32.966Z,5.60
2022-11-03T19:38:19.702Z,5.80
2022-11-03T19:41:25.033Z,13.63
2022-11-03T19:44:12.175Z,9.90
2022-11-03T19:46:57.662Z,13.40
2022-11-03T19:49:44.135Z,13.90
2022-11-03T19:52:31.311Z,16.23
2022-11-03T19:55:18.582Z,13.00
2022-11-03T19:58:22.624Z,17.80
2022-11-03T20:01:09.226Z,13.48
2022-11-03T20:03:54.754Z,12.95
2022-11-03T20:06:41.084Z,12.18
2022-11-03T20:12:18.258Z,15.32
2022-11-03T20:15:13.612Z,14.65
2022-11-03T20:17:59.246Z,13.05
2022-11-03T20:20:48.200Z,14.60
2022-11-03T20:23:35.590Z,12.05
2022-11-03T20:26:23.521Z,12.07
2022-11-03T20:29:13.859Z,13.38
2022-11-03T20:31:59.430Z,10.93
2022-11-03T20:34:46.801Z,12.52
2022-11-03T20:37:32.548Z,12.98
2022-11-03T20:40:21.473Z,14.18
2022-11-03T20:43:13.938Z,17.30
2022-11-03T20:46:02.218Z,17.02
2022-11-03T20:48:47.968Z,12.45
2022-11-03T20:51:42.067Z,14.57
2022-11-03T20:54:27.883Z,12.45
2022-11-03T20:57:14.024Z,10.80
2022-11-03T20:59:59.772Z,11.77
2022-11-03T21:02:46.493Z,14.05
2022-11-03T21:05:31.856Z,12.63
2022-11-03T21:08:17.499Z,15.13
2022-11-03T21:11:25.975Z,24.35
2022-11-03T21:14:20.879Z,11.95
2022-11-03T21:17:32.247Z,16.52
2022-11-03T21:20:17.869Z,15.32
2022-11-03T21:23:13.844Z,15.77
2022-11-03T21:25:59.932Z,14.30
2022-11-03T21:28:45.419Z,12.15
2022-11-03T21:31:31.142Z,17.38
2022-11-03T21:34:16.612Z,12.68
2022-11-03T21:37:02.226Z,12.45
2022-11-03T21:39:48.147Z,15.55
2022-11-03T21:42:52.452Z,15.77
2022-11-03T21:45:37.962Z,13.82
2022-11-03T21:48:41.811Z,14.00
2022-11-03T21:51:27.257Z,12.00
2022-11-03T21:54:12.647Z,11.45
2022-11-03T21:56:58.224Z,10.70
2022-11-03T21:59:44.073Z,9.80
2022-11-03T22:02:30.462Z,10.85
2022-11-03T22:05:15.942Z,9.10
2022-11-03T22:08:01.535Z,10.55
2022-11-03T22:10:47.093Z,14.73
2022-11-03T22:13:32.564Z,11.80
2022-11-03T22:16:53.473Z,10.77
2022-11-03T22:19:57.560Z,6.53
2022-11-03T22:23:01.411Z,9.98
2022-11-03T22:26:08.467Z,12.02
2022-11-03T22:29:12.357Z,8.82
2022-11-03T22:31:57.712Z,8.68
2022-11-03T22:35:01.876Z,9.68
2022-11-03T22:37:47.291Z,8.30
2022-11-03T22:40:52.367Z,10.40
2022-11-03T22:43:56.264Z,7.43
2022-11-03T22:46:41.831Z,11.48
2022-11-03T22:49:27.476Z,6.95
2022-11-03T22:52:13.517Z,9.40
2022-11-03T22:54:59.029Z,8.65
2022-11-03T22:57:44.504Z,6.53
2022-11-03T23:00:30.030Z,6.65
2022-11-03T23:03:15.449Z,6.15
2022-11-03T23:06:02.691Z,7.68
2022-11-03T23:08:49.595Z,8.02
2022-11-03T23:11:35.506Z,7.32
2022-11-03T23:14:21.527Z,6.03
2022-11-03T23:17:07.156Z,5.15
2022-11-03T23:20:11.087Z,5.90
2022-11-03T23:22:56.668Z,4.80
2022-11-03T23:25:42.179Z,6.25
2022-11-03T23:28:27.734Z,4.97
2022-11-03T23:31:13.759Z,4.50
2022-11-03T23:36:50.232Z,3.92
2022-11-03T23:39:36.029Z,5.53
2022-11-03T23:42:21.449Z,4.70
2022-11-03T23:45:26.117Z,3.20
2022-11-03T23:48:30.000Z,4.70
2022-11-03T23:51:23.979Z,5.28
2022-11-03T23:54:11.769Z,3.53
2022-11-03T23:57:15.854Z,3.58
